createdAt,value
2022-09-01T00:00:08.348Z,21.64
2022-09-01T00:02:36.049Z,21.63
2022-09-01T00:05:07.590Z,21.58
2022-09-01T00:07:36.810Z,21.57
2022-09-01T00:10:07.946Z,21.44
2022-09-01T00:15:07.477Z,21.40
2022-09-01T00:17:36.370Z,21.38
2022-09-01T00:20:05.077Z,21.35
2022-09-01T00:22:33.916Z,21.40
2022-09-01T00:25:02.203Z,21.40
2022-09-01T00:27:30.829Z,21.41
2022-09-01T00:32:27.821Z,21.45
2022-09-01T00:34:55.522Z,21.50
2022-09-01T00:37:23.248Z,21.46
2022-09-01T00:39:51.643Z,21.48
2022-09-01T00:42:19.352Z,21.48
2022-09-01T00:44:47.485Z,21.40
2022-09-01T00:47:15.560Z,21.39
2022-09-01T00:49:49.882Z,21.35
2022-09-01T00:52:23.353Z,21.36
2022-09-01T00:54:58.310Z,21.39
2022-09-01T00:57:26.909Z,21.30
2022-09-01T01:00:23.579Z,21.24
2022-09-01T01:02:58.227Z,21.20
2022-09-01T01:05:33.176Z,21.25
2022-09-01T01:08:03.581Z,21.12
2022-09-01T01:10:35.987Z,21.09
2022-09-01T01:13:15.472Z,21.06
2022-09-01T01:15:44.398Z,21.01
2022-09-01T01:18:23.241Z,21.06
2022-09-01T01:21:34.456Z,21.12
2022-09-01T01:24:23.614Z,21.15
2022-09-01T01:26:52.892Z,21.07
2022-09-01T01:29:22.066Z,21.09
2022-09-01T01:31:53.611Z,21.12
2022-09-01T01:34:22.848Z,21.20
2022-09-01T01:36:51.804Z,21.21
2022-09-01T01:39:25.740Z,21.13
2022-09-01T01:41:55.145Z,21.03
2022-09-01T01:44:28.356Z,21.04
2022-09-01T01:47:00.587Z,21.11
2022-09-01T01:49:29.238Z,21.08
2022-09-01T01:51:58.116Z,21.14
2022-09-01T01:54:32.616Z,21.07
2022-09-01T01:57:04.548Z,21.12
2022-09-01T01:59:34.034Z,21.05
2022-09-01T02:02:08.778Z,20.94
2022-09-01T02:04:36.653Z,20.95
2022-09-01T02:07:13.719Z,20.94
2022-09-01T02:09:46.138Z,20.99
2022-09-01T02:12:19.656Z,20.98
2022-09-01T02:14:48.695Z,20.97
2022-09-01T02:17:17.407Z,20.96
2022-09-01T02:19:47.493Z,20.92
2022-09-01T02:22:15.239Z,20.90
2022-09-01T02:24:49.223Z,20.89
2022-09-01T02:27:20.423Z,20.68
2022-09-01T02:29:51.470Z,20.61
2022-09-01T02:32:22.077Z,20.60
2022-09-01T02:34:53.799Z,20.55
2022-09-01T02:37:25.595Z,20.50
2022-09-01T02:39:53.963Z,20.46
2022-09-01T02:42:27.684Z,20.36
2022-09-01T02:44:58.571Z,20.29
2022-09-01T02:47:29.750Z,20.29
2022-09-01T02:50:03.691Z,20.28
2022-09-01T02:52:35.658Z,20.29
2022-09-01T02:55:03.975Z,20.28
2022-09-01T02:57:34.552Z,20.21
2022-09-01T03:00:20.827Z,20.15
2022-09-01T03:02:54.188Z,20.05
2022-09-01T03:05:27.140Z,20.07
2022-09-01T03:07:58.081Z,20.05
2022-09-01T03:10:35.579Z,19.94
2022-09-01T03:13:15.320Z,19.94
2022-09-01T03:15:44.608Z,20.00
2022-09-01T03:18:14.245Z,20.00
2022-09-01T03:20:46.612Z,19.98
2022-09-01T03:23:19.303Z,20.05
2022-09-01T03:25:48.999Z,19.94
2022-09-01T03:28:17.349Z,19.95
2022-09-01T03:30:49.201Z,20.06
2022-09-01T03:33:19.963Z,20.04
2022-09-01T03:35:48.408Z,20.05
2022-09-01T03:38:24.662Z,20.04
2022-09-01T03:41:02.289Z,20.15
2022-09-01T03:43:35.642Z,20.12
2022-09-01T03:46:05.336Z,20.06
2022-09-01T03:48:33.503Z,20.14
2022-09-01T03:51:03.122Z,20.20
2022-09-01T03:53:37.718Z,20.17
2022-09-01T03:56:07.431Z,20.20
2022-09-01T03:58:35.678Z,20.19
2022-09-01T04:01:05.006Z,20.16
2022-09-01T04:03:39.833Z,20.09
2022-09-01T04:06:10.018Z,19.92
2022-09-01T04:08:39.524Z,19.95
2022-09-01T04:11:27.415Z,19.94
2022-09-01T04:13:55.699Z,19.97
2022-09-01T04:16:48.071Z,19.93
2022-09-01T04:19:26.594Z,19.92
2022-09-01T04:22:00.494Z,19.88
2022-09-01T04:24:36.834Z,19.85
2022-09-01T04:27:07.440Z,19.86
2022-09-01T04:29:36.062Z,19.89
2022-09-01T04:32:13.145Z,19.91
2022-09-01T04:34:51.080Z,19.86
2022-09-01T04:37:21.876Z,19.85
2022-09-01T04:39:59.332Z,19.96
2022-09-01T04:42:32.714Z,20.02
2022-09-01T04:45:10.556Z,20.14
2022-09-01T04:47:45.542Z,20.07
2022-09-01T04:50:17.838Z,20.06
2022-09-01T04:53:06.882Z,20.03
2022-09-01T04:55:49.738Z,20.00
2022-09-01T04:58:22.167Z,20.06
2022-09-01T05:00:52.513Z,20.14
2022-09-01T05:03:24.351Z,20.28
2022-09-01T05:06:17.855Z,20.28
2022-09-01T05:08:59.517Z,20.37
2022-09-01T05:11:45.659Z,20.40
2022-09-01T05:14:26.302Z,20.41
2022-09-01T05:16:59.153Z,20.49
2022-09-01T05:19:31.155Z,20.47
2022-09-01T05:22:01.066Z,20.43
2022-09-01T05:24:32.194Z,20.45
2022-09-01T05:27:05.356Z,20.56
2022-09-01T05:29:38.124Z,20.48
2022-09-01T05:32:10.273Z,20.58
2022-09-01T05:34:43.903Z,20.73
2022-09-01T05:37:14.662Z,20.82
2022-09-01T05:39:42.540Z,20.88
2022-09-01T05:42:10.581Z,20.89
2022-09-01T05:44:44.466Z,20.92
2022-09-01T05:47:20.944Z,20.83
2022-09-01T05:49:53.825Z,20.88
2022-09-01T05:52:25.698Z,20.99
2022-09-01T05:54:55.662Z,21.01
2022-09-01T05:57:34.376Z,21.00
2022-09-01T06:00:12.438Z,21.03
2022-09-01T06:02:44.396Z,21.09
2022-09-01T06:05:19.064Z,21.17
2022-09-01T06:07:47.657Z,21.25
2022-09-01T06:10:17.329Z,21.23
2022-09-01T06:12:47.821Z,21.35
2022-09-01T06:15:21.132Z,21.33
2022-09-01T06:17:52.719Z,21.34
2022-09-01T06:20:20.543Z,21.34
2022-09-01T06:22:48.220Z,21.32
2022-09-01T06:27:48.499Z,21.41
2022-09-01T06:30:23.887Z,21.44
2022-09-01T06:33:19.508Z,21.53
2022-09-01T06:35:49.506Z,21.58
2022-09-01T06:38:20.145Z,21.68
2022-09-01T06:40:51.177Z,21.91
2022-09-01T06:43:23.330Z,22.16
2022-09-01T06:45:55.079Z,22.26
2022-09-01T06:48:27.230Z,22.36
2022-09-01T06:51:19.982Z,22.21
2022-09-01T06:53:56.751Z,22.02
2022-09-01T06:56:32.287Z,21.88
2022-09-01T06:59:06.242Z,21.91
2022-09-01T07:01:39.201Z,21.89
2022-09-01T07:10:21.090Z,22.07
2022-09-01T07:13:06.883Z,22.13
2022-09-01T07:18:37.359Z,22.19
2022-09-01T07:21:36.214Z,22.07
2022-09-01T07:24:13.457Z,22.04
2022-09-01T07:27:07.706Z,22.24
2022-09-01T07:29:36.916Z,22.28
2022-09-01T07:34:55.177Z,22.44
2022-09-01T07:42:55.814Z,21.93
2022-09-01T07:43:45.153Z,22.36
2022-09-01T07:46:40.347Z,22.39
2022-09-01T07:52:02.186Z,22.64
2022-09-01T07:54:30.630Z,22.71
2022-09-01T07:56:59.082Z,22.83
2022-09-01T07:59:29.562Z,22.96
2022-09-01T08:02:05.867Z,23.03
2022-09-01T08:04:34.749Z,23.17
2022-09-01T08:07:04.286Z,23.07
2022-09-01T08:09:37.609Z,23.08
2022-09-01T08:12:08.760Z,23.10
2022-09-01T08:14:46.826Z,23.03
2022-09-01T08:17:17.493Z,23.19
2022-09-01T08:20:09.787Z,23.36
2022-09-01T08:23:04.477Z,23.53
2022-09-01T08:25:37.129Z,23.43
2022-09-01T08:28:06.017Z,23.52
2022-09-01T08:30:35.719Z,23.60
2022-09-01T08:33:11.437Z,23.54
2022-09-01T08:35:46.070Z,23.31
2022-09-01T08:38:14.162Z,23.24
2022-09-01T08:40:51.490Z,23.32
2022-09-01T08:43:25.953Z,23.40
2022-09-01T08:46:05.409Z,23.45
2022-09-01T08:52:52.997Z,23.89
2022-09-01T08:55:35.634Z,23.68
2022-09-01T08:58:05.828Z,23.76
2022-09-01T09:00:59.637Z,23.98
2022-09-01T09:03:43.246Z,24.02
2022-09-01T09:06:17.621Z,24.02
2022-09-01T09:08:57.158Z,24.11
2022-09-01T09:11:34.183Z,23.78
2022-09-01T09:14:32.586Z,23.54
2022-09-01T09:17:01.545Z,23.49
2022-09-01T09:19:34.098Z,23.59
2022-09-01T09:22:06.365Z,23.72
2022-09-01T09:24:50.394Z,24.10
2022-09-01T09:27:43.122Z,24.32
2022-09-01T09:30:21.301Z,24.35
2022-09-01T09:33:31.002Z,24.10
2022-09-01T09:35:48.828Z,23.89
2022-09-01T09:38:22.675Z,23.83
2022-09-01T09:41:20.621Z,23.96
2022-09-01T09:44:04.423Z,24.20
2022-09-01T09:46:32.629Z,24.48
2022-09-01T09:49:34.270Z,24.64
2022-09-01T09:52:10.788Z,24.61
2022-09-01T09:54:41.202Z,24.68
2022-09-01T09:57:09.721Z,24.64
2022-09-01T10:00:01.420Z,24.67
2022-09-01T10:02:39.051Z,24.74
2022-09-01T10:05:26.048Z,24.90
2022-09-01T10:07:57.442Z,24.88
2022-09-01T10:10:31.952Z,24.87
2022-09-01T10:13:01.992Z,24.71
2022-09-01T10:15:34.052Z,24.77
2022-09-01T10:18:40.656Z,24.90
2022-09-01T10:21:24.168Z,25.18
2022-09-01T10:23:53.018Z,25.31
2022-09-01T10:26:28.321Z,25.43
2022-09-01T10:29:08.407Z,25.44
2022-09-01T10:31:41.478Z,25.45
2022-09-01T10:34:19.375Z,25.41
2022-09-01T10:36:54.999Z,25.49
2022-09-01T10:39:27.581Z,25.40
2022-09-01T10:42:07.548Z,25.23
2022-09-01T10:44:56.259Z,25.20
2022-09-01T10:47:33.547Z,25.30
2022-09-01T10:50:09.737Z,25.32
2022-09-01T10:52:40.800Z,25.54
2022-09-01T10:55:25.398Z,25.40
2022-09-01T11:01:48.845Z,25.48
2022-09-01T11:04:18.752Z,25.51
2022-09-01T11:07:38.852Z,25.49
2022-09-01T11:10:36.086Z,25.24
2022-09-01T11:13:07.036Z,25.19
2022-09-01T11:15:45.027Z,25.01
2022-09-01T11:18:27.904Z,24.94
2022-09-01T11:21:25.719Z,24.99
2022-09-01T11:24:32.098Z,25.12
2022-09-01T11:26:59.771Z,25.26
2022-09-01T11:30:12.630Z,25.27
2022-09-01T11:32:46.833Z,25.09
2022-09-01T11:35:19.383Z,25.02
2022-09-01T11:37:52.232Z,24.98
2022-09-01T11:40:33.252Z,25.06
2022-09-01T11:43:10.625Z,25.20
2022-09-01T11:45:58.366Z,25.48
2022-09-01T11:48:27.049Z,25.31
2022-09-01T11:51:01.193Z,25.29
2022-09-01T11:53:29.651Z,25.32
2022-09-01T11:56:30.694Z,25.34
2022-09-01T11:58:58.702Z,25.39
2022-09-01T12:01:37.913Z,25.07
2022-09-01T12:04:27.676Z,25.12
2022-09-01T12:07:00.005Z,25.39
2022-09-01T12:09:36.717Z,25.62
2022-09-01T12:12:06.796Z,25.49
2022-09-01T12:14:54.897Z,25.72
2022-09-01T12:17:23.028Z,25.64
2022-09-01T12:19:51.069Z,25.74
2022-09-01T12:22:21.517Z,25.76
2022-09-01T12:24:54.226Z,25.84
2022-09-01T12:27:25.158Z,25.74
2022-09-01T12:29:53.097Z,25.41
2022-09-01T12:32:21.394Z,25.39
2022-09-01T12:35:10.827Z,25.50
2022-09-01T12:37:39.437Z,25.15
2022-09-01T12:40:41.604Z,24.98
2022-09-01T12:43:09.280Z,24.99
2022-09-01T12:45:47.633Z,25.10
2022-09-01T12:48:44.726Z,25.46
2022-09-01T12:51:29.283Z,25.38
2022-09-01T12:54:04.750Z,25.37
2022-09-01T12:56:36.365Z,25.38
2022-09-01T12:59:26.274Z,25.40
2022-09-01T13:02:46.191Z,25.32
2022-09-01T13:05:27.125Z,25.09
2022-09-01T13:08:01.035Z,25.03
2022-09-01T13:10:34.497Z,25.05
2022-09-01T13:13:02.293Z,25.05
2022-09-01T13:15:31.243Z,25.05
2022-09-01T13:17:58.945Z,25.13
2022-09-01T13:20:26.886Z,25.35
2022-09-01T13:22:54.937Z,25.61
2022-09-01T13:25:24.414Z,25.64
2022-09-01T13:27:55.016Z,25.30
2022-09-01T13:30:27.246Z,25.15
2022-09-01T13:35:42.789Z,25.38
2022-09-01T13:38:10.876Z,25.28
2022-09-01T13:40:38.925Z,25.46
2022-09-01T13:43:06.939Z,25.46
2022-09-01T13:45:35.235Z,25.38
2022-09-01T13:48:19.064Z,25.18
2022-09-01T13:53:37.586Z,24.97
2022-09-01T13:56:05.440Z,24.92
2022-09-01T13:58:33.836Z,24.85
2022-09-01T14:01:02.101Z,24.74
2022-09-01T14:03:32.287Z,24.79
2022-09-01T14:06:00.468Z,24.78
2022-09-01T14:08:28.204Z,24.82
2022-09-01T14:10:55.898Z,24.85
2022-09-01T14:13:24.805Z,24.89
2022-09-01T14:15:53.729Z,24.92
2022-09-01T14:18:22.327Z,24.87
2022-09-01T14:20:51.944Z,24.84
2022-09-01T14:23:20.612Z,24.61
2022-09-01T14:25:51.335Z,24.66
2022-09-01T14:28:21.117Z,24.55
2022-09-01T14:33:18.403Z,24.50
2022-09-01T14:35:48.364Z,24.44
2022-09-01T14:38:16.292Z,24.32
2022-09-01T14:40:47.259Z,24.34
2022-09-01T14:43:15.432Z,24.37
2022-09-01T14:45:48.358Z,24.42
2022-09-01T14:48:18.055Z,24.30
2022-09-01T14:50:51.066Z,24.32
2022-09-01T14:53:19.490Z,24.26
2022-09-01T14:55:47.930Z,24.19
2022-09-01T14:58:17.195Z,24.25
2022-09-01T15:00:45.273Z,24.19
2022-09-01T15:03:13.351Z,24.09
2022-09-01T15:05:41.503Z,23.97
2022-09-01T15:08:16.968Z,23.95
2022-09-01T15:10:45.455Z,24.06
2022-09-01T15:13:16.615Z,24.06
2022-09-01T15:15:44.828Z,24.31
2022-09-01T15:18:15.372Z,24.00
2022-09-01T15:20:46.489Z,23.69
2022-09-01T15:23:20.802Z,23.60
2022-09-01T15:25:50.848Z,23.59
2022-09-01T15:28:18.654Z,23.54
2022-09-01T15:30:47.014Z,23.56
2022-09-01T15:33:16.068Z,23.55
2022-09-01T15:35:45.439Z,23.47
2022-09-01T15:38:17.450Z,23.50
2022-09-01T15:40:58.033Z,23.45
2022-09-01T15:43:28.391Z,23.45
2022-09-01T15:45:58.590Z,23.44
2022-09-01T15:48:28.664Z,23.51
2022-09-01T15:51:26.922Z,23.47
2022-09-01T15:53:57.610Z,23.44
2022-09-01T15:56:26.335Z,23.32
2022-09-01T15:59:02.670Z,23.28
2022-09-01T16:01:34.129Z,23.25
2022-09-01T16:04:05.172Z,23.17
2022-09-01T16:06:34.542Z,23.10
2022-09-01T16:09:02.382Z,23.08
2022-09-01T16:11:30.398Z,23.11
2022-09-01T16:13:58.763Z,23.06
2022-09-01T16:16:40.896Z,23.00
2022-09-01T16:19:37.357Z,22.86
2022-09-01T16:22:31.758Z,22.80
2022-09-01T16:25:02.358Z,22.65
2022-09-01T16:27:36.577Z,22.65
2022-09-01T16:30:11.337Z,22.58
2022-09-01T16:32:44.935Z,22.59
2022-09-01T16:35:13.912Z,22.56
2022-09-01T16:37:52.252Z,22.53
2022-09-01T16:40:47.289Z,22.57
2022-09-01T16:43:18.277Z,22.64
2022-09-01T16:46:10.984Z,22.65
2022-09-01T16:49:14.690Z,22.63
2022-09-01T16:52:00.286Z,22.52
2022-09-01T16:54:39.406Z,22.42
2022-09-01T16:57:25.161Z,22.43
2022-09-01T16:59:55.751Z,22.45
2022-09-01T17:02:33.135Z,22.36
2022-09-01T17:05:08.741Z,22.32
2022-09-01T17:07:50.269Z,22.27
2022-09-01T17:10:37.236Z,22.21
2022-09-01T17:13:28.341Z,22.19
2022-09-01T17:16:05.988Z,22.14
2022-09-01T17:19:04.936Z,22.15
2022-09-01T17:21:46.107Z,22.12
2022-09-01T17:24:28.536Z,22.09
2022-09-01T17:27:02.587Z,22.13
2022-09-01T17:29:41.076Z,22.14
2022-09-01T17:32:23.844Z,22.13
2022-09-01T17:34:57.760Z,22.09
2022-09-01T17:37:53.135Z,22.03
2022-09-01T17:40:46.108Z,22.03
2022-09-01T17:43:32.480Z,22.00
2022-09-01T17:46:15.920Z,21.97
2022-09-01T17:49:09.929Z,21.95
2022-09-01T17:51:48.247Z,21.93
2022-09-01T17:54:15.815Z,21.92
2022-09-01T17:56:52.065Z,21.90
2022-09-01T17:59:38.100Z,21.84
2022-09-01T18:02:46.678Z,21.76
2022-09-01T18:05:19.999Z,21.74
2022-09-01T18:08:26.940Z,21.73
2022-09-01T18:11:06.195Z,21.69
2022-09-01T18:13:53.244Z,21.61
2022-09-01T18:16:36.766Z,21.61
2022-09-01T18:19:14.109Z,21.51
2022-09-01T18:21:52.196Z,21.46
2022-09-01T18:24:34.552Z,21.39
2022-09-01T18:27:02.237Z,21.32
2022-09-01T18:29:31.746Z,21.32
2022-09-01T18:32:24.938Z,21.23
2022-09-01T18:35:04.768Z,21.22
2022-09-01T18:37:49.936Z,21.10
2022-09-01T18:40:59.385Z,21.11
2022-09-01T18:43:40.815Z,21.06
2022-09-01T18:46:29.725Z,21.07
2022-09-01T18:49:12.042Z,20.99
2022-09-01T18:51:52.492Z,20.95
2022-09-01T18:54:32.334Z,20.98
2022-09-01T18:57:06.140Z,20.98
2022-09-01T19:00:17.756Z,20.77
2022-09-01T19:02:52.518Z,20.85
2022-09-01T19:05:38.491Z,20.73
2022-09-01T19:08:29.123Z,20.69
2022-09-01T19:11:05.576Z,20.67
2022-09-01T19:13:40.828Z,20.63
2022-09-01T19:16:18.463Z,20.59
2022-09-01T19:18:54.462Z,20.64
2022-09-01T19:21:25.409Z,20.60
2022-09-01T19:24:02.348Z,20.43
2022-09-01T19:26:40.501Z,20.41
2022-09-01T19:29:16.522Z,20.48
2022-09-01T19:31:47.892Z,20.31
2022-09-01T19:34:25.785Z,20.24
2022-09-01T19:37:00.058Z,20.20
2022-09-01T19:39:39.952Z,20.20
2022-09-01T19:42:32.681Z,20.28
2022-09-01T19:45:33.157Z,20.18
2022-09-01T19:48:19.645Z,20.03
2022-09-01T19:50:51.047Z,20.02
2022-09-01T19:53:50.723Z,20.02
2022-09-01T19:56:33.265Z,19.99
2022-09-01T19:59:11.624Z,19.97
2022-09-01T20:01:59.913Z,19.99
2022-09-01T20:04:41.301Z,20.01
2022-09-01T20:07:19.442Z,19.92
2022-09-01T20:09:57.014Z,19.90
2022-09-01T20:12:45.168Z,19.72
2022-09-01T20:15:15.707Z,19.76
2022-09-01T20:17:50.335Z,19.65
2022-09-01T20:20:29.423Z,19.52
2022-09-01T20:23:35.997Z,19.46
2022-09-01T20:26:12.281Z,19.43
2022-09-01T20:29:14.294Z,19.33
2022-09-01T20:31:46.273Z,19.17
2022-09-01T20:34:47.137Z,19.11
2022-09-01T20:37:42.550Z,19.10
2022-09-01T20:40:13.117Z,19.16
2022-09-01T20:43:02.422Z,19.06
2022-09-01T20:45:32.087Z,18.90
2022-09-01T20:48:03.162Z,18.79
2022-09-01T20:50:43.595Z,18.75
2022-09-01T20:53:23.444Z,18.71
2022-09-01T20:56:13.319Z,18.65
2022-09-01T20:58:45.387Z,18.76
2022-09-01T21:01:17.462Z,18.76
2022-09-01T21:04:16.393Z,18.73
2022-09-01T21:07:04.667Z,18.48
2022-09-01T21:09:42.833Z,18.45
2022-09-01T21:12:23.267Z,18.39
2022-09-01T21:15:08.952Z,18.33
2022-09-01T21:18:07.601Z,18.38
2022-09-01T21:20:54.411Z,18.34
2022-09-01T21:23:22.769Z,18.35
2022-09-01T21:25:50.601Z,18.33
2022-09-01T21:28:21.537Z,18.22
2022-09-01T21:30:54.146Z,18.18
2022-09-01T21:33:22.987Z,18.14
2022-09-01T21:35:51.221Z,18.08
2022-09-01T21:38:19.188Z,17.99
2022-09-01T21:40:48.147Z,18.00
2022-09-01T21:43:21.239Z,18.03
2022-09-01T21:45:50.026Z,17.96
2022-09-01T21:48:18.040Z,18.03
2022-09-01T21:50:47.688Z,17.99
2022-09-01T21:53:15.435Z,17.93
2022-09-01T21:55:45.431Z,17.89
2022-09-01T21:58:13.169Z,17.94
2022-09-01T22:00:43.466Z,17.95
2022-09-01T22:03:12.253Z,17.83
2022-09-01T22:05:42.929Z,17.73
2022-09-01T22:08:13.398Z,17.62
2022-09-01T22:10:43.618Z,17.50
2022-09-01T22:13:13.874Z,17.49
2022-09-01T22:15:44.973Z,17.49
2022-09-01T22:18:14.225Z,17.42
2022-09-01T22:20:42.508Z,17.37
2022-09-01T22:23:13.841Z,17.39
2022-09-01T22:25:44.431Z,17.32
2022-09-01T22:28:13.397Z,17.34
2022-09-01T22:30:46.841Z,17.32
2022-09-01T22:33:15.949Z,17.32
2022-09-01T22:35:48.097Z,17.31
2022-09-01T22:38:16.791Z,17.37
2022-09-01T22:40:47.582Z,17.39
2022-09-01T22:43:18.401Z,17.33
2022-09-01T22:45:48.165Z,17.29
2022-09-01T22:48:18.466Z,17.29
2022-09-01T22:50:47.688Z,17.24
2022-09-01T22:53:17.874Z,17.25
2022-09-01T22:55:48.305Z,17.26
2022-09-01T22:58:17.160Z,17.28
2022-09-01T23:00:50.651Z,17.22
2022-09-01T23:03:19.720Z,17.13
2022-09-01T23:05:48.058Z,17.08
2022-09-01T23:08:17.527Z,17.09
2022-09-01T23:10:45.447Z,17.11
2022-09-01T23:13:13.084Z,17.13
2022-09-01T23:15:43.207Z,17.16
2022-09-01T23:18:10.761Z,17.14
2022-09-01T23:20:38.739Z,17.08
2022-09-01T23:23:06.420Z,17.09
2022-09-01T23:25:34.448Z,17.10
2022-09-01T23:28:02.408Z,17.07
2022-09-01T23:30:30.179Z,17.00
2022-09-01T23:32:58.119Z,16.95
2022-09-01T23:35:26.898Z,16.98
2022-09-01T23:37:55.184Z,17.10
2022-09-01T23:40:22.938Z,17.12
2022-09-01T23:42:50.609Z,17.12
2022-09-01T23:45:19.006Z,17.06
2022-09-01T23:47:47.310Z,17.04
2022-09-01T23:50:14.976Z,17.05
2022-09-01T23:52:42.597Z,17.03
2022-09-01T23:55:10.299Z,17.07
2022-09-01T23:57:38.221Z,17.05
